CheckWX is a tool to help pilots better visualize weather data.  It is not intended as a substitute for an official pre-flight weather briefing.

23:18:16 UTC

EPCE TAF
Cewice Military Airport
Lębork, Poland
TAF EPCE 061400Z 0615/0624 26012KT 9999 SCT040 TEMPO 0615/0619 25018G28KT 7000 SHRA BKN020CB PROB30 TEMPO 0615/0619 VRB30KT 5000 TSRA BKN015CB

Jul-6@
15:00 UTC

Jul-6 @ 15:00 UTC

Jul-7@
00:00 UTC

Jul-7 @ 00:00 UTC

TAF EPCE 061400Z 0615/0624 26012KT 9999 SCT040
Wind
  • 260° at 12 KTS
Cloud Levels
  • Scattered at 4,000' AGL

Jul-6@
15:00 UTC

Jul-6 @ 15:00 UTC

Jul-6@
19:00 UTC

Jul-6 @ 19:00 UTC

TEMPO 0615/0619 25018G28KT 7000 SHRA BKN020CB

Expired

Wind
  • 250° at 18 KTS
  • {Gusting to 28 KTS
Conditions
Showers, Rain
Cloud Levels
  • Broken at 2,000' AGL

Jul-6@
15:00 UTC

Jul-6 @ 15:00 UTC

Jul-6@
19:00 UTC

Jul-6 @ 19:00 UTC

PROB30 TEMPO 0615/0619 VRB30KT 5000 TSRA BKN015CB

Expired

Wind
  • Variable at 30 KTS
Conditions
Thunderstorm, Rain
Cloud Levels
  • Broken at 1,500' AGL